Alamo, Nevada
Current Conditions -  °F | °C
As of 1:58 AM on Thursday 29 Jan 2015 (Local Time) from KINS Reporting Station
Broken Clouds Broken Clouds  
Wind Chill:   Ceiling: 13000
Heat Index:   Visibility: 10mi
Dew Point:   Wind: 0mph
Humidity: 70%   Direction: NA
Pressure: 30.19"   Gusts: NA
Location:  37.36°N, 115.16°W
Report Text: KINS 290958Z AUTO 00000KT 10SM SCT110 BKN130 BKN180 10/04 A3019 RMK AO2 SLP204 T00950043
Loading
Personal Weather Stations






























Interactive Weather Map New forecast layout! Learn more

10-Day Weather Forecast

Advertisements
Track Severe Weather on mobile